sensor_id;sensor_type;location;lat;lon;timestamp;P1;durP1;ratioP1;P2;durP2;ratioP2
46931;SDS011;32670;51.464;11.964;2023-08-30T00:00:03;2.43;;;1.10;;
46931;SDS011;32670;51.464;11.964;2023-08-30T00:02:29;1.97;;;1.10;;
46931;SDS011;32670;51.464;11.964;2023-08-30T00:05:01;2.60;;;1.20;;
46931;SDS011;32670;51.464;11.964;2023-08-30T00:07:28;1.17;;;1.00;;
46931;SDS011;32670;51.464;11.964;2023-08-30T00:09:53;2.87;;;1.30;;
46931;SDS011;32670;51.464;11.964;2023-08-30T00:12:19;1.20;;;1.10;;
46931;SDS011;32670;51.464;11.964;2023-08-30T00:14:44;3.70;;;1.20;;
46931;SDS011;32670;51.464;11.964;2023-08-30T00:17:10;1.33;;;1.10;;
46931;SDS011;32670;51.464;11.964;2023-08-30T00:19:35;2.10;;;1.33;;
46931;SDS011;32670;51.464;11.964;2023-08-30T00:22:01;2.23;;;1.30;;
46931;SDS011;32670;51.464;11.964;2023-08-30T00:24:26;2.03;;;1.30;;
46931;SDS011;32670;51.464;11.964;2023-08-30T00:26:53;1.27;;;1.13;;
46931;SDS011;32670;51.464;11.964;2023-08-30T00:29:18;1.97;;;1.30;;
46931;SDS011;32670;51.464;11.964;2023-08-30T00:31:44;2.37;;;1.20;;
46931;SDS011;32670;51.464;11.964;2023-08-30T00:34:10;2.83;;;1.40;;
46931;SDS011;32670;51.464;11.964;2023-08-30T00:36:35;1.73;;;1.30;;
46931;SDS011;32670;51.464;11.964;2023-08-30T00:39:01;2.00;;;1.43;;
46931;SDS011;32670;51.464;11.964;2023-08-30T00:41:27;1.67;;;1.20;;
46931;SDS011;32670;51.464;11.964;2023-08-30T00:43:52;2.03;;;1.30;;
46931;SDS011;32670;51.464;11.964;2023-08-30T00:46:18;2.33;;;1.30;;
46931;SDS011;32670;51.464;11.964;2023-08-30T00:48:44;3.07;;;1.40;;
46931;SDS011;32670;51.464;11.964;2023-08-30T00:51:10;4.83;;;1.33;;
46931;SDS011;32670;51.464;11.964;2023-08-30T00:53:36;1.40;;;1.10;;
46931;SDS011;32670;51.464;11.964;2023-08-30T00:56:01;1.83;;;1.40;;
46931;SDS011;32670;51.464;11.964;2023-08-30T00:58:27;2.40;;;1.40;;
46931;SDS011;32670;51.464;11.964;2023-08-30T01:00:53;2.10;;;1.63;;
46931;SDS011;32670;51.464;11.964;2023-08-30T01:03:19;4.50;;;1.40;;
46931;SDS011;32670;51.464;11.964;2023-08-30T01:05:46;3.10;;;1.40;;
46931;SDS011;32670;51.464;11.964;2023-08-30T01:08:12;1.83;;;1.20;;
46931;SDS011;32670;51.464;11.964;2023-08-30T01:10:44;3.67;;;1.40;;
46931;SDS011;32670;51.464;11.964;2023-08-30T01:13:18;4.07;;;1.73;;
46931;SDS011;32670;51.464;11.964;2023-08-30T01:15:46;2.23;;;1.30;;
46931;SDS011;32670;51.464;11.964;2023-08-30T01:18:12;2.17;;;1.37;;
46931;SDS011;32670;51.464;11.964;2023-08-30T01:20:40;1.40;;;1.23;;
46931;SDS011;32670;51.464;11.964;2023-08-30T01:23:17;2.60;;;1.50;;
46931;SDS011;32670;51.464;11.964;2023-08-30T01:28:29;1.50;;;1.40;;
46931;SDS011;32670;51.464;11.964;2023-08-30T01:30:56;4.13;;;1.60;;
46931;SDS011;32670;51.464;11.964;2023-08-30T01:33:23;3.10;;;1.50;;
46931;SDS011;32670;51.464;11.964;2023-08-30T01:35:53;3.53;;;1.60;;
46931;SDS011;32670;51.464;11.964;2023-08-30T01:38:23;1.67;;;1.30;;
46931;SDS011;32670;51.464;11.964;2023-08-30T01:40:49;2.77;;;1.57;;
46931;SDS011;32670;51.464;11.964;2023-08-30T01:43:17;3.87;;;2.07;;
46931;SDS011;32670;51.464;11.964;2023-08-30T01:45:43;3.53;;;1.80;;
46931;SDS011;32670;51.464;11.964;2023-08-30T01:48:10;3.60;;;1.80;;
46931;SDS011;32670;51.464;11.964;2023-08-30T01:50:38;2.47;;;1.70;;
46931;SDS011;32670;51.464;11.964;2023-08-30T01:53:06;3.43;;;2.00;;
46931;SDS011;32670;51.464;11.964;2023-08-30T01:55:34;2.67;;;1.80;;
46931;SDS011;32670;51.464;11.964;2023-08-30T01:58:01;2.90;;;1.70;;
46931;SDS011;32670;51.464;11.964;2023-08-30T02:00:26;2.00;;;1.77;;
46931;SDS011;32670;51.464;11.964;2023-08-30T02:02:52;2.67;;;1.60;;
46931;SDS011;32670;51.464;11.964;2023-08-30T02:05:18;1.97;;;1.57;;
46931;SDS011;32670;51.464;11.964;2023-08-30T02:07:46;6.67;;;1.60;;
46931;SDS011;32670;51.464;11.964;2023-08-30T02:10:35;2.33;;;1.60;;
46931;SDS011;32670;51.464;11.964;2023-08-30T02:13:03;3.33;;;1.60;;
46931;SDS011;32670;51.464;11.964;2023-08-30T02:15:30;1.87;;;1.40;;
46931;SDS011;32670;51.464;11.964;2023-08-30T02:17:58;1.60;;;1.50;;
46931;SDS011;32670;51.464;11.964;2023-08-30T02:20:24;3.57;;;1.53;;
46931;SDS011;32670;51.464;11.964;2023-08-30T02:22:50;3.00;;;1.80;;
46931;SDS011;32670;51.464;11.964;2023-08-30T02:25:16;2.40;;;1.70;;
46931;SDS011;32670;51.464;11.964;2023-08-30T02:27:41;2.37;;;1.50;;
46931;SDS011;32670;51.464;11.964;2023-08-30T02:30:07;1.83;;;1.60;;
46931;SDS011;32670;51.464;11.964;2023-08-30T02:32:33;3.60;;;1.80;;
46931;SDS011;32670;51.464;11.964;2023-08-30T02:34:58;2.13;;;1.43;;
46931;SDS011;32670;51.464;11.964;2023-08-30T02:37:24;2.57;;;1.40;;
46931;SDS011;32670;51.464;11.964;2023-08-30T02:39:49;3.23;;;1.93;;
46931;SDS011;32670;51.464;11.964;2023-08-30T02:42:15;2.77;;;1.63;;
46931;SDS011;32670;51.464;11.964;2023-08-30T02:44:41;4.23;;;1.47;;
46931;SDS011;32670;51.464;11.964;2023-08-30T02:47:06;3.43;;;1.60;;
46931;SDS011;32670;51.464;11.964;2023-08-30T02:49:32;2.43;;;1.70;;
46931;SDS011;32670;51.464;11.964;2023-08-30T02:51:58;3.33;;;1.50;;
46931;SDS011;32670;51.464;11.964;2023-08-30T02:54:23;3.60;;;1.70;;
46931;SDS011;32670;51.464;11.964;2023-08-30T02:56:49;2.03;;;1.70;;
46931;SDS011;32670;51.464;11.964;2023-08-30T02:59:15;2.53;;;1.67;;
46931;SDS011;32670;51.464;11.964;2023-08-30T03:01:40;2.73;;;1.73;;
46931;SDS011;32670;51.464;11.964;2023-08-30T03:04:06;1.73;;;1.30;;
46931;SDS011;32670;51.464;11.964;2023-08-30T03:06:32;1.63;;;1.30;;
46931;SDS011;32670;51.464;11.964;2023-08-30T03:08:58;1.60;;;1.50;;
46931;SDS011;32670;51.464;11.964;2023-08-30T03:11:24;3.07;;;1.60;;
46931;SDS011;32670;51.464;11.964;2023-08-30T03:13:49;3.00;;;1.50;;
46931;SDS011;32670;51.464;11.964;2023-08-30T03:16:15;1.93;;;1.40;;
46931;SDS011;32670;51.464;11.964;2023-08-30T03:18:42;2.63;;;1.50;;
46931;SDS011;32670;51.464;11.964;2023-08-30T03:21:08;4.50;;;1.60;;
46931;SDS011;32670;51.464;11.964;2023-08-30T03:23:34;2.50;;;1.30;;
46931;SDS011;32670;51.464;11.964;2023-08-30T03:26:07;1.73;;;1.60;;
46931;SDS011;32670;51.464;11.964;2023-08-30T03:28:34;1.50;;;1.40;;
46931;SDS011;32670;51.464;11.964;2023-08-30T03:30:59;2.40;;;1.20;;
46931;SDS011;32670;51.464;11.964;2023-08-30T03:33:25;3.10;;;1.60;;
46931;SDS011;32670;51.464;11.964;2023-08-30T03:35:50;1.77;;;1.30;;
46931;SDS011;32670;51.464;11.964;2023-08-30T03:38:15;2.13;;;1.40;;
46931;SDS011;32670;51.464;11.964;2023-08-30T03:40:41;1.80;;;1.60;;
46931;SDS011;32670;51.464;11.964;2023-08-30T03:43:06;2.33;;;1.40;;
46931;SDS011;32670;51.464;11.964;2023-08-30T03:45:35;1.77;;;1.40;;
46931;SDS011;32670;51.464;11.964;2023-08-30T03:48:01;2.60;;;1.73;;
46931;SDS011;32670;51.464;11.964;2023-08-30T03:50:28;3.07;;;1.97;;
46931;SDS011;32670;51.464;11.964;2023-08-30T03:52:53;3.00;;;1.40;;
46931;SDS011;32670;51.464;11.964;2023-08-30T03:55:19;3.90;;;1.57;;
46931;SDS011;32670;51.464;11.964;2023-08-30T03:57:44;2.57;;;1.60;;
46931;SDS011;32670;51.464;11.964;2023-08-30T04:00:10;1.73;;;1.63;;
46931;SDS011;32670;51.464;11.964;2023-08-30T04:02:36;1.60;;;1.50;;
46931;SDS011;32670;51.464;11.964;2023-08-30T04:05:01;2.30;;;1.50;;
46931;SDS011;32670;51.464;11.964;2023-08-30T04:07:28;4.40;;;1.63;;
46931;SDS011;32670;51.464;11.964;2023-08-30T04:09:53;3.57;;;1.67;;
46931;SDS011;32670;51.464;11.964;2023-08-30T04:12:19;1.60;;;1.50;;
46931;SDS011;32670;51.464;11.964;2023-08-30T04:14:44;4.03;;;1.80;;
46931;SDS011;32670;51.464;11.964;2023-08-30T04:17:10;2.77;;;1.60;;
46931;SDS011;32670;51.464;11.964;2023-08-30T04:19:35;3.93;;;1.67;;
46931;SDS011;32670;51.464;11.964;2023-08-30T04:22:01;1.50;;;1.40;;
46931;SDS011;32670;51.464;11.964;2023-08-30T04:24:26;2.20;;;1.70;;
46931;SDS011;32670;51.464;11.964;2023-08-30T04:26:52;3.07;;;1.70;;
46931;SDS011;32670;51.464;11.964;2023-08-30T04:29:19;1.90;;;1.70;;
46931;SDS011;32670;51.464;11.964;2023-08-30T04:31:44;2.60;;;1.50;;
46931;SDS011;32670;51.464;11.964;2023-08-30T04:34:10;2.50;;;1.93;;
46931;SDS011;32670;51.464;11.964;2023-08-30T04:36:35;3.30;;;1.70;;
46931;SDS011;32670;51.464;11.964;2023-08-30T04:39:00;2.63;;;1.83;;
46931;SDS011;32670;51.464;11.964;2023-08-30T04:41:26;2.13;;;1.70;;
46931;SDS011;32670;51.464;11.964;2023-08-30T04:43:51;3.23;;;2.00;;
46931;SDS011;32670;51.464;11.964;2023-08-30T04:46:17;3.30;;;1.93;;
46931;SDS011;32670;51.464;11.964;2023-08-30T04:48:42;3.37;;;1.77;;
46931;SDS011;32670;51.464;11.964;2023-08-30T04:51:08;1.83;;;1.73;;
46931;SDS011;32670;51.464;11.964;2023-08-30T04:53:33;3.33;;;2.13;;
46931;SDS011;32670;51.464;11.964;2023-08-30T04:55:59;2.20;;;2.03;;
46931;SDS011;32670;51.464;11.964;2023-08-30T04:58:24;4.63;;;1.93;;
46931;SDS011;32670;51.464;11.964;2023-08-30T05:00:50;2.07;;;1.87;;
46931;SDS011;32670;51.464;11.964;2023-08-30T05:03:15;2.73;;;2.50;;
46931;SDS011;32670;51.464;11.964;2023-08-30T05:05:44;2.20;;;2.07;;
46931;SDS011;32670;51.464;11.964;2023-08-30T05:08:10;3.50;;;2.00;;
46931;SDS011;32670;51.464;11.964;2023-08-30T05:10:36;3.03;;;1.90;;
46931;SDS011;32670;51.464;11.964;2023-08-30T05:13:02;2.80;;;1.87;;
46931;SDS011;32670;51.464;11.964;2023-08-30T05:15:28;4.17;;;2.13;;
46931;SDS011;32670;51.464;11.964;2023-08-30T05:17:54;2.30;;;2.10;;
46931;SDS011;32670;51.464;11.964;2023-08-30T05:20:19;4.50;;;2.50;;
46931;SDS011;32670;51.464;11.964;2023-08-30T05:22:45;2.70;;;2.27;;
46931;SDS011;32670;51.464;11.964;2023-08-30T05:25:10;3.33;;;2.40;;
46931;SDS011;32670;51.464;11.964;2023-08-30T05:27:36;4.30;;;2.20;;
46931;SDS011;32670;51.464;11.964;2023-08-30T05:30:01;3.50;;;2.17;;
46931;SDS011;32670;51.464;11.964;2023-08-30T05:32:28;2.57;;;2.00;;
46931;SDS011;32670;51.464;11.964;2023-08-30T05:34:53;2.90;;;2.00;;
46931;SDS011;32670;51.464;11.964;2023-08-30T05:37:19;2.93;;;2.23;;
46931;SDS011;32670;51.464;11.964;2023-08-30T05:39:44;2.97;;;2.50;;
46931;SDS011;32670;51.464;11.964;2023-08-30T05:42:10;3.23;;;2.07;;
46931;SDS011;32670;51.464;11.964;2023-08-30T05:44:35;5.77;;;2.83;;
46931;SDS011;32670;51.464;11.964;2023-08-30T05:47:01;4.47;;;2.63;;
46931;SDS011;32670;51.464;11.964;2023-08-30T05:49:26;3.67;;;2.90;;
46931;SDS011;32670;51.464;11.964;2023-08-30T05:51:52;3.17;;;2.83;;
46931;SDS011;32670;51.464;11.964;2023-08-30T05:54:17;2.90;;;2.60;;
46931;SDS011;32670;51.464;11.964;2023-08-30T05:56:43;3.17;;;2.20;;
46931;SDS011;32670;51.464;11.964;2023-08-30T05:59:09;3.37;;;2.57;;
46931;SDS011;32670;51.464;11.964;2023-08-30T06:01:34;2.57;;;2.17;;
46931;SDS011;32670;51.464;11.964;2023-08-30T06:04:00;4.13;;;2.33;;
46931;SDS011;32670;51.464;11.964;2023-08-30T06:06:25;4.70;;;2.60;;
46931;SDS011;32670;51.464;11.964;2023-08-30T06:08:52;2.20;;;2.00;;
46931;SDS011;32670;51.464;11.964;2023-08-30T06:11:18;2.47;;;1.90;;
46931;SDS011;32670;51.464;11.964;2023-08-30T06:13:43;6.10;;;2.20;;
46931;SDS011;32670;51.464;11.964;2023-08-30T06:16:09;5.70;;;2.10;;
46931;SDS011;32670;51.464;11.964;2023-08-30T06:18:34;4.40;;;2.10;;
46931;SDS011;32670;51.464;11.964;2023-08-30T06:21:02;5.90;;;2.10;;
46931;SDS011;32670;51.464;11.964;2023-08-30T06:23:28;4.30;;;1.97;;
46931;SDS011;32670;51.464;11.964;2023-08-30T06:25:57;3.17;;;2.10;;
46931;SDS011;32670;51.464;11.964;2023-08-30T06:28:23;2.70;;;2.10;;
46931;SDS011;32670;51.464;11.964;2023-08-30T06:30:49;3.30;;;1.97;;
46931;SDS011;32670;51.464;11.964;2023-08-30T06:33:15;5.10;;;2.03;;
46931;SDS011;32670;51.464;11.964;2023-08-30T06:35:41;2.13;;;1.93;;
46931;SDS011;32670;51.464;11.964;2023-08-30T06:38:07;2.57;;;2.10;;
46931;SDS011;32670;51.464;11.964;2023-08-30T06:40:33;2.67;;;1.80;;
46931;SDS011;32670;51.464;11.964;2023-08-30T06:42:58;2.00;;;1.70;;
46931;SDS011;32670;51.464;11.964;2023-08-30T06:45:24;5.23;;;1.87;;
46931;SDS011;32670;51.464;11.964;2023-08-30T06:47:50;3.53;;;1.90;;
46931;SDS011;32670;51.464;11.964;2023-08-30T06:50:16;2.40;;;1.97;;
46931;SDS011;32670;51.464;11.964;2023-08-30T06:52:42;3.10;;;1.77;;
46931;SDS011;32670;51.464;11.964;2023-08-30T06:55:07;2.30;;;1.70;;
46931;SDS011;32670;51.464;11.964;2023-08-30T06:57:33;5.27;;;1.90;;
46931;SDS011;32670;51.464;11.964;2023-08-30T06:59:58;1.87;;;1.77;;
46931;SDS011;32670;51.464;11.964;2023-08-30T07:02:30;1.80;;;1.70;;
46931;SDS011;32670;51.464;11.964;2023-08-30T07:04:56;2.00;;;1.80;;
46931;SDS011;32670;51.464;11.964;2023-08-30T07:07:21;1.90;;;1.80;;
46931;SDS011;32670;51.464;11.964;2023-08-30T07:09:46;1.80;;;1.70;;
46931;SDS011;32670;51.464;11.964;2023-08-30T07:12:12;1.90;;;1.80;;
46931;SDS011;32670;51.464;11.964;2023-08-30T07:14:37;3.37;;;2.00;;
46931;SDS011;32670;51.464;11.964;2023-08-30T07:17:03;2.57;;;1.93;;
46931;SDS011;32670;51.464;11.964;2023-08-30T07:19:28;6.07;;;1.83;;
46931;SDS011;32670;51.464;11.964;2023-08-30T07:21:54;2.37;;;2.07;;
46931;SDS011;32670;51.464;11.964;2023-08-30T07:24:19;2.67;;;1.70;;
46931;SDS011;32670;51.464;11.964;2023-08-30T07:26:47;2.77;;;1.93;;
46931;SDS011;32670;51.464;11.964;2023-08-30T07:29:13;2.10;;;1.90;;
46931;SDS011;32670;51.464;11.964;2023-08-30T07:31:38;3.77;;;1.80;;
46931;SDS011;32670;51.464;11.964;2023-08-30T07:34:06;1.90;;;1.70;;
46931;SDS011;32670;51.464;11.964;2023-08-30T07:36:32;4.93;;;1.90;;
46931;SDS011;32670;51.464;11.964;2023-08-30T07:38:58;1.83;;;1.70;;
46931;SDS011;32670;51.464;11.964;2023-08-30T07:41:23;3.00;;;1.80;;
46931;SDS011;32670;51.464;11.964;2023-08-30T07:43:49;1.83;;;1.73;;
46931;SDS011;32670;51.464;11.964;2023-08-30T07:46:14;2.43;;;1.60;;
46931;SDS011;32670;51.464;11.964;2023-08-30T07:48:40;2.23;;;1.70;;
46931;SDS011;32670;51.464;11.964;2023-08-30T07:51:05;1.80;;;1.70;;
46931;SDS011;32670;51.464;11.964;2023-08-30T07:53:31;3.73;;;1.77;;
46931;SDS011;32670;51.464;11.964;2023-08-30T07:55:56;2.57;;;1.50;;
46931;SDS011;32670;51.464;11.964;2023-08-30T07:58:22;1.70;;;1.60;;
46931;SDS011;32670;51.464;11.964;2023-08-30T08:00:50;2.73;;;1.83;;
46931;SDS011;32670;51.464;11.964;2023-08-30T08:03:21;1.67;;;1.40;;
46931;SDS011;32670;51.464;11.964;2023-08-30T08:05:47;1.50;;;1.40;;
46931;SDS011;32670;51.464;11.964;2023-08-30T08:08:13;1.70;;;1.50;;
46931;SDS011;32670;51.464;11.964;2023-08-30T08:10:39;2.20;;;1.60;;
46931;SDS011;32670;51.464;11.964;2023-08-30T08:13:05;2.20;;;1.30;;
46931;SDS011;32670;51.464;11.964;2023-08-30T08:15:30;2.63;;;1.50;;
46931;SDS011;32670;51.464;11.964;2023-08-30T08:17:57;2.07;;;1.70;;
46931;SDS011;32670;51.464;11.964;2023-08-30T08:20:22;2.33;;;1.40;;
46931;SDS011;32670;51.464;11.964;2023-08-30T08:22:47;1.90;;;1.70;;
46931;SDS011;32670;51.464;11.964;2023-08-30T08:25:13;1.97;;;1.50;;
46931;SDS011;32670;51.464;11.964;2023-08-30T08:27:39;1.70;;;1.60;;
46931;SDS011;32670;51.464;11.964;2023-08-30T08:30:04;1.60;;;1.50;;
46931;SDS011;32670;51.464;11.964;2023-08-30T08:32:31;1.47;;;1.37;;
46931;SDS011;32670;51.464;11.964;2023-08-30T08:34:57;1.83;;;1.67;;
46931;SDS011;32670;51.464;11.964;2023-08-30T08:37:23;2.10;;;1.60;;
46931;SDS011;32670;51.464;11.964;2023-08-30T08:39:48;1.60;;;1.50;;
46931;SDS011;32670;51.464;11.964;2023-08-30T08:42:16;1.63;;;1.53;;
46931;SDS011;32670;51.464;11.964;2023-08-30T08:44:42;1.97;;;1.30;;
46931;SDS011;32670;51.464;11.964;2023-08-30T08:47:10;1.47;;;1.37;;
46931;SDS011;32670;51.464;11.964;2023-08-30T08:49:36;1.70;;;1.47;;
46931;SDS011;32670;51.464;11.964;2023-08-30T08:52:01;3.00;;;1.60;;
46931;SDS011;32670;51.464;11.964;2023-08-30T08:54:28;2.27;;;1.50;;
46931;SDS011;32670;51.464;11.964;2023-08-30T08:56:54;1.47;;;1.37;;
46931;SDS011;32670;51.464;11.964;2023-08-30T08:59:20;2.77;;;1.73;;
46931;SDS011;32670;51.464;11.964;2023-08-30T09:01:46;1.67;;;1.57;;
46931;SDS011;32670;51.464;11.964;2023-08-30T09:04:13;2.00;;;1.40;;
46931;SDS011;32670;51.464;11.964;2023-08-30T09:06:38;1.57;;;1.40;;
46931;SDS011;32670;51.464;11.964;2023-08-30T09:09:10;1.57;;;1.40;;
46931;SDS011;32670;51.464;11.964;2023-08-30T09:11:36;1.63;;;1.50;;
46931;SDS011;32670;51.464;11.964;2023-08-30T09:14:02;3.07;;;1.50;;
46931;SDS011;32670;51.464;11.964;2023-08-30T09:16:27;1.73;;;1.33;;
46931;SDS011;32670;51.464;11.964;2023-08-30T09:18:57;1.73;;;1.30;;
46931;SDS011;32670;51.464;11.964;2023-08-30T09:21:29;1.57;;;1.47;;
46931;SDS011;32670;51.464;11.964;2023-08-30T09:24:03;1.60;;;1.50;;
46931;SDS011;32670;51.464;11.964;2023-08-30T09:26:30;1.40;;;1.30;;
46931;SDS011;32670;51.464;11.964;2023-08-30T09:29:03;2.70;;;1.60;;
46931;SDS011;32670;51.464;11.964;2023-08-30T09:31:36;1.63;;;1.30;;
46931;SDS011;32670;51.464;11.964;2023-08-30T09:34:03;1.73;;;1.60;;
46931;SDS011;32670;51.464;11.964;2023-08-30T09:39:05;1.83;;;1.40;;
46931;SDS011;32670;51.464;11.964;2023-08-30T09:41:31;1.40;;;1.30;;
46931;SDS011;32670;51.464;11.964;2023-08-30T09:43:58;1.40;;;1.30;;
46931;SDS011;32670;51.464;11.964;2023-08-30T09:46:24;1.40;;;1.30;;
46931;SDS011;32670;51.464;11.964;2023-08-30T09:48:50;1.37;;;1.27;;
46931;SDS011;32670;51.464;11.964;2023-08-30T09:51:15;1.60;;;1.37;;
46931;SDS011;32670;51.464;11.964;2023-08-30T09:53:45;1.60;;;1.50;;
46931;SDS011;32670;51.464;11.964;2023-08-30T09:56:15;1.23;;;1.13;;
46931;SDS011;32670;51.464;11.964;2023-08-30T09:58:42;1.20;;;1.10;;
46931;SDS011;32670;51.464;11.964;2023-08-30T10:01:09;1.47;;;1.30;;
46931;SDS011;32670;51.464;11.964;2023-08-30T10:03:35;1.60;;;1.50;;
46931;SDS011;32670;51.464;11.964;2023-08-30T10:06:01;1.43;;;1.30;;
46931;SDS011;32670;51.464;11.964;2023-08-30T10:08:30;2.03;;;1.30;;
46931;SDS011;32670;51.464;11.964;2023-08-30T10:10:58;1.60;;;1.50;;
46931;SDS011;32670;51.464;11.964;2023-08-30T10:13:25;1.60;;;1.40;;
46931;SDS011;32670;51.464;11.964;2023-08-30T10:15:50;1.30;;;1.20;;
46931;SDS011;32670;51.464;11.964;2023-08-30T10:18:22;1.20;;;1.10;;
46931;SDS011;32670;51.464;11.964;2023-08-30T10:20:53;1.37;;;1.27;;
46931;SDS011;32670;51.464;11.964;2023-08-30T10:23:20;1.73;;;1.60;;
46931;SDS011;32670;51.464;11.964;2023-08-30T10:25:48;1.87;;;1.13;;
46931;SDS011;32670;51.464;11.964;2023-08-30T10:28:15;1.40;;;1.30;;
46931;SDS011;32670;51.464;11.964;2023-08-30T10:30:42;2.00;;;1.20;;
46931;SDS011;32670;51.464;11.964;2023-08-30T10:33:11;1.40;;;1.30;;
46931;SDS011;32670;51.464;11.964;2023-08-30T10:35:46;1.27;;;1.17;;
46931;SDS011;32670;51.464;11.964;2023-08-30T10:38:13;1.30;;;1.20;;
46931;SDS011;32670;51.464;11.964;2023-08-30T10:40:50;1.87;;;1.33;;
46931;SDS011;32670;51.464;11.964;2023-08-30T10:43:16;1.40;;;1.13;;
46931;SDS011;32670;51.464;11.964;2023-08-30T10:45:41;1.60;;;1.50;;
46931;SDS011;32670;51.464;11.964;2023-08-30T10:48:07;1.63;;;1.33;;
46931;SDS011;32670;51.464;11.964;2023-08-30T10:50:33;1.40;;;1.30;;
46931;SDS011;32670;51.464;11.964;2023-08-30T10:52:59;1.40;;;1.30;;
46931;SDS011;32670;51.464;11.964;2023-08-30T10:55:26;1.43;;;1.20;;
46931;SDS011;32670;51.464;11.964;2023-08-30T10:58:01;1.30;;;1.10;;
46931;SDS011;32670;51.464;11.964;2023-08-30T11:00:29;1.07;;;1.03;;
46931;SDS011;32670;51.464;11.964;2023-08-30T11:02:55;1.30;;;1.20;;
46931;SDS011;32670;51.464;11.964;2023-08-30T11:05:22;2.13;;;1.20;;
46931;SDS011;32670;51.464;11.964;2023-08-30T11:07:48;1.40;;;1.20;;
46931;SDS011;32670;51.464;11.964;2023-08-30T11:10:15;1.83;;;1.20;;
46931;SDS011;32670;51.464;11.964;2023-08-30T11:12:41;1.40;;;1.30;;
46931;SDS011;32670;51.464;11.964;2023-08-30T11:15:09;2.47;;;1.20;;
46931;SDS011;32670;51.464;11.964;2023-08-30T11:17:35;1.40;;;1.30;;
46931;SDS011;32670;51.464;11.964;2023-08-30T11:20:07;1.67;;;1.40;;
46931;SDS011;32670;51.464;11.964;2023-08-30T11:22:42;1.07;;;1.03;;
46931;SDS011;32670;51.464;11.964;2023-08-30T11:25:09;1.27;;;1.17;;
46931;SDS011;32670;51.464;11.964;2023-08-30T11:27:35;1.20;;;1.10;;
46931;SDS011;32670;51.464;11.964;2023-08-30T11:30:02;1.73;;;1.23;;
46931;SDS011;32670;51.464;11.964;2023-08-30T11:32:33;1.17;;;1.10;;
46931;SDS011;32670;51.464;11.964;2023-08-30T11:34:59;1.67;;;1.00;;
46931;SDS011;32670;51.464;11.964;2023-08-30T11:37:26;1.93;;;1.20;;
46931;SDS011;32670;51.464;11.964;2023-08-30T11:39:52;1.20;;;1.10;;
46931;SDS011;32670;51.464;11.964;2023-08-30T11:42:19;1.97;;;1.03;;
46931;SDS011;32670;51.464;11.964;2023-08-30T11:44:46;1.93;;;1.30;;
46931;SDS011;32670;51.464;11.964;2023-08-30T11:47:12;1.30;;;1.20;;
46931;SDS011;32670;51.464;11.964;2023-08-30T11:49:44;1.33;;;1.10;;
46931;SDS011;32670;51.464;11.964;2023-08-30T11:52:10;1.23;;;1.13;;
46931;SDS011;32670;51.464;11.964;2023-08-30T11:54:36;1.40;;;1.30;;
46931;SDS011;32670;51.464;11.964;2023-08-30T11:57:01;1.63;;;1.20;;
46931;SDS011;32670;51.464;11.964;2023-08-30T11:59:28;1.23;;;1.10;;
46931;SDS011;32670;51.464;11.964;2023-08-30T12:01:53;1.10;;;1.10;;
46931;SDS011;32670;51.464;11.964;2023-08-30T12:04:19;1.27;;;1.17;;
46931;SDS011;32670;51.464;11.964;2023-08-30T12:06:52;1.07;;;0.97;;
46931;SDS011;32670;51.464;11.964;2023-08-30T12:09:18;1.20;;;1.10;;
46931;SDS011;32670;51.464;11.964;2023-08-30T12:11:46;1.20;;;1.00;;
46931;SDS011;32670;51.464;11.964;2023-08-30T12:14:15;1.20;;;1.10;;
46931;SDS011;32670;51.464;11.964;2023-08-30T12:16:41;1.43;;;1.20;;
46931;SDS011;32670;51.464;11.964;2023-08-30T12:19:10;0.90;;;0.90;;
46931;SDS011;32670;51.464;11.964;2023-08-30T12:21:44;0.83;;;0.83;;
46931;SDS011;32670;51.464;11.964;2023-08-30T12:24:12;1.00;;;1.00;;
46931;SDS011;32670;51.464;11.964;2023-08-30T12:26:37;1.23;;;1.13;;
46931;SDS011;32670;51.464;11.964;2023-08-30T12:29:03;1.30;;;1.03;;
46931;SDS011;32670;51.464;11.964;2023-08-30T12:31:30;1.47;;;1.20;;
46931;SDS011;32670;51.464;11.964;2023-08-30T12:33:56;1.37;;;1.00;;
46931;SDS011;32670;51.464;11.964;2023-08-30T12:36:22;1.70;;;1.00;;
46931;SDS011;32670;51.464;11.964;2023-08-30T12:38:47;1.20;;;1.00;;
46931;SDS011;32670;51.464;11.964;2023-08-30T12:41:13;1.40;;;1.00;;
46931;SDS011;32670;51.464;11.964;2023-08-30T12:43:38;1.20;;;1.10;;
46931;SDS011;32670;51.464;11.964;2023-08-30T12:46:04;1.40;;;1.00;;
46931;SDS011;32670;51.464;11.964;2023-08-30T12:48:29;1.63;;;1.10;;
46931;SDS011;32670;51.464;11.964;2023-08-30T12:50:55;1.77;;;1.20;;
46931;SDS011;32670;51.464;11.964;2023-08-30T12:53:21;1.20;;;1.10;;
46931;SDS011;32670;51.464;11.964;2023-08-30T12:55:46;1.20;;;0.97;;
46931;SDS011;32670;51.464;11.964;2023-08-30T12:58:12;0.90;;;0.90;;
46931;SDS011;32670;51.464;11.964;2023-08-30T13:00:38;2.40;;;1.10;;
46931;SDS011;32670;51.464;11.964;2023-08-30T13:03:04;2.20;;;0.83;;
46931;SDS011;32670;51.464;11.964;2023-08-30T13:05:30;1.20;;;1.10;;
46931;SDS011;32670;51.464;11.964;2023-08-30T13:07:57;1.33;;;1.00;;
46931;SDS011;32670;51.464;11.964;2023-08-30T13:10:25;1.00;;;0.90;;
46931;SDS011;32670;51.464;11.964;2023-08-30T13:12:51;1.70;;;1.17;;
46931;SDS011;32670;51.464;11.964;2023-08-30T13:15:17;2.97;;;1.20;;
46931;SDS011;32670;51.464;11.964;2023-08-30T13:17:43;1.20;;;1.10;;
46931;SDS011;32670;51.464;11.964;2023-08-30T13:20:09;1.10;;;1.00;;
46931;SDS011;32670;51.464;11.964;2023-08-30T13:22:35;1.70;;;1.03;;
46931;SDS011;32670;51.464;11.964;2023-08-30T13:25:02;1.30;;;1.20;;
46931;SDS011;32670;51.464;11.964;2023-08-30T13:27:28;1.23;;;1.00;;
46931;SDS011;32670;51.464;11.964;2023-08-30T13:29:54;1.20;;;1.10;;
46931;SDS011;32670;51.464;11.964;2023-08-30T13:32:19;1.00;;;0.90;;
46931;SDS011;32670;51.464;11.964;2023-08-30T13:34:45;1.13;;;1.10;;
46931;SDS011;32670;51.464;11.964;2023-08-30T13:37:12;0.97;;;0.87;;
46931;SDS011;32670;51.464;11.964;2023-08-30T13:39:38;1.60;;;1.07;;
46931;SDS011;32670;51.464;11.964;2023-08-30T13:42:06;0.90;;;0.90;;
46931;SDS011;32670;51.464;11.964;2023-08-30T13:44:32;1.07;;;1.07;;
46931;SDS011;32670;51.464;11.964;2023-08-30T13:47:00;0.90;;;0.90;;
46931;SDS011;32670;51.464;11.964;2023-08-30T13:49:26;1.07;;;1.00;;
46931;SDS011;32670;51.464;11.964;2023-08-30T13:51:52;1.10;;;1.10;;
46931;SDS011;32670;51.464;11.964;2023-08-30T13:54:18;1.40;;;0.90;;
46931;SDS011;32670;51.464;11.964;2023-08-30T13:56:44;0.83;;;0.83;;
46931;SDS011;32670;51.464;11.964;2023-08-30T13:59:09;0.90;;;0.90;;
46931;SDS011;32670;51.464;11.964;2023-08-30T14:01:35;1.23;;;1.00;;
46931;SDS011;32670;51.464;11.964;2023-08-30T14:04:00;0.97;;;0.87;;
46931;SDS011;32670;51.464;11.964;2023-08-30T14:06:26;0.90;;;0.90;;
46931;SDS011;32670;51.464;11.964;2023-08-30T14:08:51;1.20;;;1.10;;
46931;SDS011;32670;51.464;11.964;2023-08-30T14:11:17;1.00;;;1.00;;
46931;SDS011;32670;51.464;11.964;2023-08-30T14:13:42;0.97;;;0.90;;
46931;SDS011;32670;51.464;11.964;2023-08-30T14:16:08;1.83;;;0.90;;
46931;SDS011;32670;51.464;11.964;2023-08-30T14:18:35;1.20;;;1.10;;
46931;SDS011;32670;51.464;11.964;2023-08-30T14:21:01;0.80;;;0.80;;
46931;SDS011;32670;51.464;11.964;2023-08-30T14:23:27;0.93;;;0.93;;
46931;SDS011;32670;51.464;11.964;2023-08-30T14:25:57;1.00;;;0.90;;
46931;SDS011;32670;51.464;11.964;2023-08-30T14:28:23;3.20;;;1.00;;
46931;SDS011;32670;51.464;11.964;2023-08-30T14:30:50;1.73;;;1.10;;
46931;SDS011;32670;51.464;11.964;2023-08-30T14:33:15;1.17;;;1.00;;